createdAt,value
2019-02-21T00:01:32.331Z,16.30
2019-02-21T00:04:01.183Z,15.67
2019-02-21T00:06:29.982Z,16.50
2019-02-21T00:08:58.765Z,15.27
2019-02-21T00:11:28.262Z,17.63
2019-02-21T00:13:57.127Z,15.67
2019-02-21T00:16:26.245Z,16.57
2019-02-21T00:18:55.017Z,17.67
2019-02-21T00:21:23.789Z,15.20
2019-02-21T00:23:52.931Z,16.17
2019-02-21T00:26:21.726Z,15.47
2019-02-21T00:28:50.522Z,16.73
2019-02-21T00:31:19.676Z,14.83
2019-02-21T00:33:48.521Z,15.97
2019-02-21T00:36:17.566Z,15.50
2019-02-21T00:38:46.380Z,15.33
2019-02-21T00:41:15.506Z,14.90
2019-02-21T00:43:44.277Z,16.90
2019-02-21T00:46:13.052Z,14.50
2019-02-21T00:48:41.836Z,15.37
2019-02-21T00:51:10.593Z,17.67
2019-02-21T00:53:39.391Z,16.03
2019-02-21T00:56:08.481Z,15.97
2019-02-21T00:58:37.244Z,17.97
2019-02-21T01:01:06.085Z,16.93
2019-02-21T01:03:34.871Z,16.53
2019-02-21T01:06:03.717Z,17.07
2019-02-21T01:08:32.862Z,17.97
2019-02-21T01:11:01.698Z,17.60
2019-02-21T01:13:30.554Z,17.00
2019-02-21T01:15:59.608Z,17.43
2019-02-21T01:18:28.377Z,17.50
2019-02-21T01:20:57.132Z,16.07
2019-02-21T01:23:25.909Z,16.47
2019-02-21T01:25:54.674Z,17.17
2019-02-21T01:28:23.449Z,17.87
2019-02-21T01:30:56.951Z,17.07
2019-02-21T01:33:22.706Z,17.10
2019-02-21T01:35:51.543Z,16.13
2019-02-21T01:38:20.312Z,16.80
2019-02-21T01:40:49.091Z,16.47
2019-02-21T01:43:17.943Z,17.83
2019-02-21T01:45:46.719Z,17.77
2019-02-21T01:48:15.489Z,17.20
2019-02-21T01:50:44.297Z,17.47
2019-02-21T01:53:13.071Z,19.50
2019-02-21T01:55:41.839Z,18.00
2019-02-21T01:58:10.986Z,18.23
2019-02-21T02:00:39.997Z,17.27
2019-02-21T02:03:08.849Z,19.53
2019-02-21T02:05:37.899Z,19.00
2019-02-21T02:08:07.017Z,20.87
2019-02-21T02:10:35.777Z,18.83
2019-02-21T02:13:04.699Z,18.23
2019-02-21T02:15:33.565Z,18.97
2019-02-21T02:18:02.344Z,18.47
2019-02-21T02:20:31.182Z,18.40
2019-02-21T02:22:59.952Z,17.07
2019-02-21T02:25:28.723Z,17.70
2019-02-21T02:27:57.566Z,18.57
2019-02-21T02:30:26.342Z,18.50
2019-02-21T02:32:55.124Z,19.83
2019-02-21T02:35:23.990Z,17.30
2019-02-21T02:37:52.769Z,19.83
2019-02-21T02:40:21.527Z,17.87
2019-02-21T02:42:50.368Z,19.47
2019-02-21T02:45:19.128Z,17.90
2019-02-21T02:47:47.905Z,18.03
2019-02-21T02:50:16.688Z,16.87
2019-02-21T02:52:45.450Z,17.10
2019-02-21T02:55:14.558Z,16.60
2019-02-21T02:57:43.314Z,16.33
2019-02-21T03:00:13.610Z,17.23
2019-02-21T03:02:42.457Z,15.50
2019-02-21T03:05:11.382Z,16.67
2019-02-21T03:07:40.143Z,15.97
2019-02-21T03:10:10.740Z,16.83
2019-02-21T03:12:39.502Z,17.13
2019-02-21T03:15:08.505Z,16.00
2019-02-21T03:17:37.342Z,16.57
2019-02-21T03:20:06.800Z,15.80
2019-02-21T03:22:35.738Z,16.27
2019-02-21T03:25:05.181Z,15.83
2019-02-21T03:27:33.961Z,15.70
2019-02-21T03:30:02.713Z,17.80
2019-02-21T03:32:31.479Z,18.53
2019-02-21T03:35:00.412Z,16.83
2019-02-21T03:37:29.501Z,17.40
2019-02-21T03:39:58.302Z,19.63
2019-02-21T03:42:27.150Z,16.70
2019-02-21T03:44:55.917Z,17.57
2019-02-21T03:47:24.674Z,16.70
2019-02-21T03:49:53.437Z,18.30
2019-02-21T03:52:22.205Z,17.70
2019-02-21T03:54:51.058Z,18.97
2019-02-21T03:57:19.940Z,17.60
2019-02-21T03:59:48.898Z,17.53
2019-02-21T04:02:17.762Z,18.63
2019-02-21T04:04:46.694Z,18.07
2019-02-21T04:07:15.522Z,15.20
2019-02-21T04:09:44.327Z,16.97
2019-02-21T04:12:13.070Z,17.33
2019-02-21T04:14:41.973Z,15.97
2019-02-21T04:17:10.777Z,15.50
2019-02-21T04:19:39.618Z,15.87
2019-02-21T04:22:08.378Z,17.47
2019-02-21T04:24:37.151Z,18.23
2019-02-21T04:27:06.198Z,19.20
2019-02-21T04:29:35.338Z,17.17
2019-02-21T04:32:04.093Z,17.60
2019-02-21T04:34:32.875Z,19.93
2019-02-21T04:37:01.626Z,18.33
2019-02-21T04:39:30.406Z,16.87
2019-02-21T04:41:59.534Z,15.70
2019-02-21T04:44:28.649Z,18.30
2019-02-21T04:46:57.555Z,17.37
2019-02-21T04:49:26.362Z,17.47
2019-02-21T04:51:55.118Z,17.90
2019-02-21T04:54:24.168Z,16.37
2019-02-21T04:56:53.006Z,17.37
2019-02-21T04:59:21.781Z,17.20
2019-02-21T05:01:50.571Z,18.87
2019-02-21T05:04:19.359Z,19.20
2019-02-21T05:06:48.138Z,17.57
2019-02-21T05:09:16.883Z,17.87
2019-02-21T05:11:45.784Z,17.57
2019-02-21T05:14:14.662Z,18.83
2019-02-21T05:16:44.739Z,17.17
2019-02-21T05:19:14.100Z,18.50
2019-02-21T05:21:43.035Z,19.37
2019-02-21T05:24:11.821Z,17.87
2019-02-21T05:26:44.832Z,19.27
2019-02-21T05:29:14.107Z,19.50
2019-02-21T05:32:14.079Z,20.33
2019-02-21T05:34:57.982Z,18.93
2019-02-21T05:37:42.145Z,21.07
2019-02-21T05:40:41.959Z,19.77
2019-02-21T05:43:20.714Z,18.03
2019-02-21T05:46:00.045Z,19.63
2019-02-21T05:48:34.266Z,74.20
2019-02-21T05:51:25.031Z,42.67
2019-02-21T05:54:05.520Z,54.60
2019-02-21T05:56:41.092Z,26.50
2019-02-21T05:59:27.353Z,47.23
2019-02-21T06:02:15.206Z,23.10
2019-02-21T06:05:03.053Z,19.43
2019-02-21T06:07:39.818Z,23.57
2019-02-21T06:10:26.611Z,22.20
2019-02-21T06:13:10.873Z,20.70
2019-02-21T06:15:57.382Z,21.87
2019-02-21T06:18:45.544Z,21.73
2019-02-21T06:21:27.801Z,23.37
2019-02-21T06:24:03.685Z,23.77
2019-02-21T06:26:43.526Z,21.23
2019-02-21T06:32:19.315Z,19.20
2019-02-21T06:34:48.172Z,18.93
2019-02-21T06:37:17.338Z,22.40
2019-02-21T06:39:46.105Z,19.67
2019-02-21T06:42:14.890Z,22.43
2019-02-21T06:44:43.666Z,23.17
2019-02-21T06:47:12.441Z,25.73
2019-02-21T06:49:41.213Z,41.37
2019-02-21T06:52:09.999Z,54.07
2019-02-21T06:54:38.836Z,26.80
2019-02-21T06:57:07.613Z,29.40
2019-02-21T06:59:43.307Z,24.63
2019-02-21T07:02:08.187Z,25.77
2019-02-21T07:04:36.951Z,23.00
2019-02-21T07:07:06.172Z,22.47
2019-02-21T07:09:34.930Z,21.93
2019-02-21T07:12:03.836Z,23.83
2019-02-21T07:14:34.491Z,22.40
2019-02-21T07:17:03.397Z,20.23
2019-02-21T07:19:32.565Z,23.30
2019-02-21T07:22:01.404Z,21.63
2019-02-21T07:24:30.466Z,22.70
2019-02-21T07:26:59.238Z,22.77
2019-02-21T07:29:28.048Z,21.33
2019-02-21T07:31:56.822Z,22.67
2019-02-21T07:34:25.629Z,22.10
2019-02-21T07:36:54.401Z,26.27
2019-02-21T07:39:23.206Z,22.40
2019-02-21T07:41:51.993Z,22.60
2019-02-21T07:44:21.257Z,23.40
2019-02-21T07:46:50.045Z,25.67
2019-02-21T07:49:18.909Z,21.73
2019-02-21T07:51:47.714Z,22.83
2019-02-21T07:54:16.492Z,24.70
2019-02-21T07:56:45.265Z,23.50
2019-02-21T07:59:14.069Z,22.37
2019-02-21T08:01:42.917Z,23.47
2019-02-21T08:04:11.844Z,28.63
2019-02-21T08:06:40.650Z,34.03
2019-02-21T08:09:09.510Z,32.50
2019-02-21T08:11:38.430Z,37.87
2019-02-21T08:14:07.294Z,49.57
2019-02-21T08:16:36.407Z,55.90
2019-02-21T08:19:05.341Z,53.03
2019-02-21T08:21:34.480Z,48.20
2019-02-21T08:24:03.352Z,48.47
2019-02-21T08:26:32.138Z,44.03
2019-02-21T08:29:00.926Z,44.10
2019-02-21T08:31:29.781Z,34.30
2019-02-21T08:34:04.302Z,33.87
2019-02-21T08:36:33.171Z,32.17
2019-02-21T08:39:03.894Z,28.30
2019-02-21T08:41:32.699Z,29.37
2019-02-21T08:44:01.473Z,23.67
2019-02-21T08:46:30.240Z,24.93
2019-02-21T08:48:59.089Z,26.77
2019-02-21T08:51:27.863Z,41.77
2019-02-21T08:53:56.645Z,27.30
2019-02-21T08:56:25.489Z,27.43
2019-02-21T08:58:54.613Z,26.77
2019-02-21T09:01:23.572Z,26.33
2019-02-21T09:03:52.621Z,27.07
2019-02-21T09:06:21.741Z,23.73
2019-02-21T09:08:50.624Z,24.47
2019-02-21T09:11:19.852Z,23.33
2019-02-21T09:13:49.210Z,23.27
2019-02-21T09:16:18.070Z,23.03
2019-02-21T09:18:46.990Z,22.03
2019-02-21T09:21:15.777Z,20.10
2019-02-21T09:23:44.822Z,20.87
2019-02-21T09:26:13.716Z,21.27
2019-02-21T09:28:42.508Z,21.80
2019-02-21T09:31:11.301Z,22.80
2019-02-21T09:33:40.154Z,23.57
2019-02-21T09:36:08.970Z,23.43
2019-02-21T09:38:37.825Z,23.93
2019-02-21T09:41:06.765Z,21.47
2019-02-21T09:43:35.629Z,21.13
2019-02-21T09:46:04.499Z,21.13
2019-02-21T09:48:33.276Z,19.10
2019-02-21T09:51:02.086Z,19.53
2019-02-21T09:53:30.942Z,19.43
2019-02-21T09:55:59.739Z,19.50
2019-02-21T09:58:28.760Z,19.37
2019-02-21T10:00:57.538Z,19.47
2019-02-21T10:03:26.394Z,19.37
2019-02-21T10:05:55.194Z,19.53
2019-02-21T10:08:24.047Z,20.67
2019-02-21T10:10:52.935Z,22.10
2019-02-21T10:13:21.969Z,23.63
2019-02-21T10:15:50.986Z,20.67
2019-02-21T10:18:19.762Z,20.47
2019-02-21T10:20:48.577Z,20.50
2019-02-21T10:23:17.346Z,21.53
2019-02-21T10:25:46.479Z,20.40
2019-02-21T10:28:15.318Z,21.00
2019-02-21T10:30:44.161Z,21.00
2019-02-21T10:33:13.438Z,17.93
2019-02-21T10:35:42.449Z,20.07
2019-02-21T10:38:11.221Z,20.70
2019-02-21T10:40:39.997Z,20.33
2019-02-21T10:43:08.785Z,19.83
2019-02-21T10:45:47.327Z,20.03
2019-02-21T10:48:08.061Z,18.20
2019-02-21T10:50:36.834Z,18.70
2019-02-21T10:53:05.722Z,18.03
2019-02-21T10:55:34.514Z,20.50
2019-02-21T10:58:03.432Z,19.90
2019-02-21T11:00:32.440Z,19.10
2019-02-21T11:03:01.323Z,18.93
2019-02-21T11:05:30.278Z,20.37
2019-02-21T11:07:59.140Z,19.33
2019-02-21T11:10:28.322Z,19.90
2019-02-21T11:12:57.201Z,20.33
2019-02-21T11:15:26.164Z,21.43
2019-02-21T11:17:55.468Z,23.20
2019-02-21T11:20:24.401Z,22.07
2019-02-21T11:22:53.331Z,23.18
2019-02-21T11:25:22.497Z,24.67
2019-02-21T11:27:51.353Z,25.45
2019-02-21T11:30:20.280Z,24.95
2019-02-21T11:32:49.691Z,23.87
2019-02-21T11:35:18.525Z,24.07
2019-02-21T11:37:47.822Z,23.70
2019-02-21T11:40:17.186Z,25.87
2019-02-21T11:42:46.428Z,26.23
2019-02-21T11:45:15.856Z,26.20
2019-02-21T11:47:44.701Z,25.50
2019-02-21T11:50:15.007Z,25.70
2019-02-21T11:52:44.279Z,24.10
2019-02-21T11:55:15.654Z,25.37
2019-02-21T11:57:44.842Z,24.37
2019-02-21T12:00:22.010Z,26.27
2019-02-21T12:02:50.885Z,25.03
2019-02-21T12:05:30.439Z,26.02
2019-02-21T12:07:50.317Z,25.10
2019-02-21T12:10:19.161Z,24.17
2019-02-21T12:12:48.122Z,25.40
2019-02-21T12:15:17.090Z,24.35
2019-02-21T12:17:46.034Z,24.63
2019-02-21T12:20:15.032Z,24.12
2019-02-21T12:22:43.895Z,24.90
2019-02-21T12:25:14.109Z,23.22
2019-02-21T12:27:42.898Z,24.65
2019-02-21T12:30:33.353Z,25.65
2019-02-21T12:33:01.481Z,25.23
2019-02-21T12:35:30.558Z,24.35
2019-02-21T12:37:59.644Z,25.55
2019-02-21T12:40:29.062Z,25.40
2019-02-21T12:42:58.131Z,26.12
2019-02-21T12:45:27.072Z,25.40
2019-02-21T12:47:57.353Z,26.33
2019-02-21T12:50:26.141Z,25.52
2019-02-21T12:52:54.923Z,27.07
2019-02-21T12:55:29.294Z,25.75
2019-02-21T12:57:54.227Z,26.35
2019-02-21T13:00:23.151Z,25.57
2019-02-21T13:02:52.025Z,26.27
2019-02-21T13:05:20.850Z,27.13
2019-02-21T13:07:49.670Z,26.60
2019-02-21T13:10:19.127Z,24.30
2019-02-21T13:12:48.008Z,26.40
2019-02-21T13:15:16.874Z,24.05
2019-02-21T13:17:45.748Z,27.60
2019-02-21T13:20:14.800Z,27.85
2019-02-21T13:22:44.017Z,26.40
2019-02-21T13:25:13.097Z,26.57
2019-02-21T13:27:41.935Z,26.27
2019-02-21T13:30:15.061Z,26.87
2019-02-21T13:32:43.903Z,26.02
2019-02-21T13:35:12.845Z,27.85
2019-02-21T13:37:41.827Z,27.42
2019-02-21T13:40:12.151Z,27.10
2019-02-21T13:42:40.912Z,25.55
2019-02-21T13:45:10.652Z,27.90
2019-02-21T13:47:39.462Z,27.77
2019-02-21T13:50:14.179Z,26.15
2019-02-21T13:52:42.959Z,26.35
2019-02-21T13:55:11.966Z,27.45
2019-02-21T13:57:40.736Z,29.70
2019-02-21T14:00:12.206Z,34.03
2019-02-21T14:02:41.037Z,27.95
2019-02-21T14:05:10.270Z,26.05
2019-02-21T14:07:39.321Z,28.55
2019-02-21T14:10:08.983Z,29.90
2019-02-21T14:12:37.765Z,27.60
2019-02-21T14:15:08.207Z,28.52
2019-02-21T14:17:37.049Z,29.72
2019-02-21T14:20:06.389Z,28.75
2019-02-21T14:22:35.614Z,29.82
2019-02-21T14:25:04.557Z,30.27
2019-02-21T14:27:33.317Z,30.62
2019-02-21T14:30:02.442Z,29.87
2019-02-21T14:32:31.210Z,31.87
2019-02-21T14:34:59.989Z,32.42
2019-02-21T14:37:28.751Z,31.85
2019-02-21T14:39:57.567Z,32.70
2019-02-21T14:42:26.341Z,32.00
2019-02-21T14:44:55.122Z,32.08
2019-02-21T14:47:23.881Z,33.58
2019-02-21T14:49:52.652Z,36.77
2019-02-21T14:52:21.417Z,49.57
2019-02-21T14:54:50.199Z,39.30
2019-02-21T14:57:19.055Z,33.63
2019-02-21T14:59:47.847Z,32.73
2019-02-21T15:02:16.614Z,32.48
2019-02-21T15:04:45.384Z,30.95
2019-02-21T15:07:14.158Z,30.90
2019-02-21T15:09:44.969Z,28.53
2019-02-21T15:12:13.514Z,29.93
2019-02-21T15:14:42.652Z,29.67
2019-02-21T15:17:11.413Z,30.83
2019-02-21T15:19:40.193Z,29.57
2019-02-21T15:22:09.306Z,30.37
2019-02-21T15:24:38.095Z,31.17
2019-02-21T15:27:08.806Z,59.30
2019-02-21T15:29:40.591Z,32.90
2019-02-21T15:32:11.070Z,36.73
2019-02-21T15:34:38.460Z,37.17
2019-02-21T15:37:07.237Z,34.92
2019-02-21T15:39:36.100Z,34.23
2019-02-21T15:42:04.889Z,31.75
2019-02-21T15:44:33.669Z,34.60
2019-02-21T15:47:02.453Z,33.33
2019-02-21T15:49:31.467Z,37.50
2019-02-21T15:52:00.542Z,35.63
2019-02-21T15:54:29.308Z,35.33
2019-02-21T15:56:58.093Z,35.80
2019-02-21T15:59:27.167Z,35.13
2019-02-21T16:01:55.950Z,37.27
2019-02-21T16:04:24.718Z,37.03
2019-02-21T16:06:53.841Z,39.87
2019-02-21T16:09:25.145Z,39.00
2019-02-21T16:11:53.149Z,40.70
2019-02-21T16:14:22.351Z,39.57
2019-02-21T16:16:51.220Z,38.50
2019-02-21T16:19:20.084Z,37.47
2019-02-21T16:21:48.845Z,38.33
2019-02-21T16:24:17.601Z,41.40
2019-02-21T16:26:46.394Z,37.60
2019-02-21T16:29:15.162Z,36.23
2019-02-21T16:31:44.289Z,36.27
2019-02-21T16:34:13.394Z,35.60
2019-02-21T16:36:42.613Z,37.03
2019-02-21T16:39:11.474Z,38.67
2019-02-21T16:41:40.561Z,38.43
2019-02-21T16:44:09.329Z,39.17
2019-02-21T16:46:38.360Z,42.10
2019-02-21T16:49:07.217Z,47.10
2019-02-21T16:51:36.026Z,50.53
2019-02-21T16:54:05.125Z,42.70
2019-02-21T16:56:34.229Z,44.07
2019-02-21T16:59:02.994Z,39.00
2019-02-21T17:01:31.781Z,41.70
2019-02-21T17:04:00.548Z,36.83
2019-02-21T17:06:29.398Z,33.73
2019-02-21T17:08:58.298Z,35.33
2019-02-21T17:11:27.060Z,34.00
2019-02-21T17:13:55.854Z,36.37
2019-02-21T17:16:24.609Z,35.50
2019-02-21T17:18:55.908Z,35.97
2019-02-21T17:21:23.882Z,29.97
2019-02-21T17:23:52.848Z,30.77
2019-02-21T17:26:21.625Z,32.23
2019-02-21T17:28:50.397Z,33.70
2019-02-21T17:31:19.253Z,27.07
2019-02-21T17:33:48.082Z,33.30
2019-02-21T17:36:16.853Z,33.43
2019-02-21T17:38:45.702Z,31.63
2019-02-21T17:41:14.469Z,31.07
2019-02-21T17:43:43.680Z,150.83
2019-02-21T17:46:12.605Z,36.73
2019-02-21T17:48:41.521Z,54.53
2019-02-21T17:51:10.663Z,32.83
2019-02-21T17:53:39.479Z,30.03
2019-02-21T17:56:08.354Z,30.40
2019-02-21T17:58:37.203Z,31.27
2019-02-21T18:01:06.400Z,30.37
2019-02-21T18:03:35.277Z,31.30
2019-02-21T18:06:04.133Z,30.33
2019-02-21T18:08:33.037Z,30.43
2019-02-21T18:11:01.794Z,29.03
2019-02-21T18:13:30.647Z,29.03
2019-02-21T18:15:59.575Z,30.17
2019-02-21T18:18:28.520Z,29.97
2019-02-21T18:20:57.340Z,27.60
2019-02-21T18:23:26.249Z,29.60
2019-02-21T18:25:59.814Z,29.47
2019-02-21T18:28:29.063Z,27.23
2019-02-21T18:30:58.233Z,30.47
2019-02-21T18:33:27.175Z,30.67
2019-02-21T18:35:55.977Z,29.63
2019-02-21T18:38:25.172Z,29.20
2019-02-21T18:40:54.625Z,28.40
2019-02-21T18:43:23.947Z,30.40
2019-02-21T18:45:52.718Z,29.50
2019-02-21T18:48:21.562Z,31.20
2019-02-21T18:50:50.497Z,31.13
2019-02-21T18:53:19.249Z,30.40
2019-02-21T18:55:48.205Z,27.00
2019-02-21T18:58:17.042Z,27.30
2019-02-21T19:00:45.998Z,27.33
2019-02-21T19:03:14.891Z,29.57
2019-02-21T19:05:43.806Z,29.23
2019-02-21T19:08:13.179Z,30.43
2019-02-21T19:10:42.173Z,30.37
2019-02-21T19:13:11.063Z,34.83
2019-02-21T19:15:40.065Z,34.47
2019-02-21T19:18:08.901Z,32.40
2019-02-21T19:20:37.868Z,38.47
2019-02-21T19:23:06.740Z,47.27
2019-02-21T19:25:35.645Z,37.77
2019-02-21T19:28:04.479Z,37.63
2019-02-21T19:30:36.977Z,38.27
2019-02-21T19:33:06.026Z,37.83
2019-02-21T19:35:34.947Z,34.80
2019-02-21T19:38:10.399Z,35.17
2019-02-21T19:40:34.892Z,35.57
2019-02-21T19:43:03.731Z,33.37
2019-02-21T19:45:32.649Z,34.87
2019-02-21T19:48:04.056Z,35.83
2019-02-21T19:50:32.503Z,34.80
2019-02-21T19:53:01.260Z,35.63
2019-02-21T19:55:30.205Z,33.77
2019-02-21T19:57:59.986Z,35.70
2019-02-21T20:00:30.866Z,36.87
2019-02-21T20:02:59.629Z,36.57
2019-02-21T20:05:28.476Z,33.77
2019-02-21T20:08:07.766Z,35.47
2019-02-21T20:10:27.806Z,33.83
2019-02-21T20:12:58.625Z,35.37
2019-02-21T20:15:27.412Z,33.67
2019-02-21T20:17:56.157Z,33.50
2019-02-21T20:20:25.135Z,34.97
2019-02-21T20:22:53.889Z,43.23
2019-02-21T20:25:22.917Z,40.87
2019-02-21T20:27:51.751Z,44.70
2019-02-21T20:30:20.705Z,39.33
2019-02-21T20:32:49.469Z,37.17
2019-02-21T20:35:18.570Z,34.97
2019-02-21T20:37:47.340Z,38.87
2019-02-21T20:40:16.169Z,38.23
2019-02-21T20:42:44.959Z,34.97
2019-02-21T20:45:13.863Z,38.07
2019-02-21T20:47:42.721Z,39.40
2019-02-21T20:50:12.068Z,40.53
2019-02-21T20:52:40.983Z,40.53
2019-02-21T20:55:10.217Z,37.87
2019-02-21T20:57:39.146Z,40.00
2019-02-21T21:00:09.524Z,41.80
2019-02-21T21:02:38.368Z,40.10
2019-02-21T21:05:07.283Z,42.33
2019-02-21T21:07:36.271Z,45.43
2019-02-21T21:10:07.971Z,55.47
2019-02-21T21:12:37.030Z,47.83
2019-02-21T21:15:06.151Z,40.30
2019-02-21T21:17:35.010Z,42.60
2019-02-21T21:20:03.934Z,45.47
2019-02-21T21:22:32.778Z,39.87
2019-02-21T21:25:01.537Z,44.70
2019-02-21T21:27:30.328Z,44.83
2019-02-21T21:29:59.450Z,46.60
2019-02-21T21:32:28.300Z,45.27
2019-02-21T21:34:57.073Z,44.30
2019-02-21T21:37:26.211Z,46.97
2019-02-21T21:39:55.117Z,49.73
2019-02-21T21:42:23.962Z,51.53
2019-02-21T21:44:53.146Z,49.93
2019-02-21T21:47:21.913Z,49.03
2019-02-21T21:49:50.773Z,49.00
2019-02-21T21:52:19.621Z,50.50
2019-02-21T21:54:48.394Z,45.20
2019-02-21T21:57:17.161Z,59.67
2019-02-21T21:59:45.922Z,84.80
2019-02-21T22:02:14.697Z,81.30
2019-02-21T22:04:43.462Z,84.53
2019-02-21T22:07:12.234Z,68.90
2019-02-21T22:09:41.007Z,55.10
2019-02-21T22:12:09.877Z,70.83
2019-02-21T22:14:38.973Z,104.70
2019-02-21T22:17:07.816Z,56.90
2019-02-21T22:19:36.603Z,54.90
2019-02-21T22:22:05.442Z,66.10
2019-02-21T22:24:34.321Z,57.93
2019-02-21T22:27:03.078Z,54.63
2019-02-21T22:29:31.855Z,53.20
2019-02-21T22:32:00.701Z,51.10
2019-02-21T22:34:29.465Z,52.60
2019-02-21T22:36:58.302Z,52.40
2019-02-21T22:39:27.072Z,54.10
2019-02-21T22:41:56.165Z,52.60
2019-02-21T22:44:24.951Z,53.27
2019-02-21T22:46:53.705Z,65.07
2019-02-21T22:49:22.554Z,57.97
2019-02-21T22:51:51.323Z,55.53
2019-02-21T22:54:20.096Z,56.10
2019-02-21T22:56:49.193Z,56.10
2019-02-21T22:59:17.979Z,55.30
2019-02-21T23:01:48.069Z,52.67
2019-02-21T23:04:43.834Z,53.20
2019-02-21T23:08:06.111Z,55.13
2019-02-21T23:10:34.889Z,54.80
2019-02-21T23:13:03.654Z,56.50
2019-02-21T23:15:32.433Z,56.90
2019-02-21T23:18:01.513Z,56.23
2019-02-21T23:20:30.709Z,56.03
2019-02-21T23:22:59.473Z,54.80
2019-02-21T23:25:28.249Z,55.90
2019-02-21T23:27:57.070Z,53.83
2019-02-21T23:30:25.836Z,55.93
2019-02-21T23:32:54.592Z,56.63
2019-02-21T23:35:23.370Z,53.37
2019-02-21T23:37:52.144Z,54.10
2019-02-21T23:40:21.673Z,55.93
2019-02-21T23:42:50.752Z,54.30
2019-02-21T23:45:19.544Z,55.50
2019-02-21T23:47:49.984Z,56.30
2019-02-21T23:50:19.222Z,55.77
2019-02-21T23:52:48.049Z,57.30
2019-02-21T23:55:16.832Z,55.93
2019-02-21T23:57:45.585Z,56.03
